sensor_id;sensor_type;location;lat;lon;timestamp;pressure;altitude;pressure_sealevel;temperature;humidity
47220;BME280;32961;51.936;4.788;2023-03-25T00:02:20;100068.28;;;9.19;84.83
47220;BME280;32961;51.936;4.788;2023-03-25T00:04:49;100074.09;;;9.24;84.88
47220;BME280;32961;51.936;4.788;2023-03-25T00:07:18;100081.22;;;9.25;84.64
47220;BME280;32961;51.936;4.788;2023-03-25T00:09:48;100075.25;;;9.21;84.60
47220;BME280;32961;51.936;4.788;2023-03-25T00:12:16;100082.22;;;9.24;84.71
47220;BME280;32961;51.936;4.788;2023-03-25T00:14:45;100085.63;;;9.26;84.63
47220;BME280;32961;51.936;4.788;2023-03-25T00:17:20;100084.59;;;9.27;84.37
47220;BME280;32961;51.936;4.788;2023-03-25T00:19:48;100073.94;;;9.25;84.69
47220;BME280;32961;51.936;4.788;2023-03-25T00:22:17;100048.53;;;9.26;84.53
47220;BME280;32961;51.936;4.788;2023-03-25T00:24:45;100073.09;;;9.25;84.28
47220;BME280;32961;51.936;4.788;2023-03-25T00:27:15;100066.66;;;9.26;84.02
47220;BME280;32961;51.936;4.788;2023-03-25T00:29:44;100063.16;;;9.15;84.06
47220;BME280;32961;51.936;4.788;2023-03-25T00:32:13;100052.31;;;9.15;84.01
47220;BME280;32961;51.936;4.788;2023-03-25T00:34:42;100059.75;;;9.13;83.87
47220;BME280;32961;51.936;4.788;2023-03-25T00:37:13;100060.78;;;9.12;84.00
47220;BME280;32961;51.936;4.788;2023-03-25T00:39:43;100063.31;;;9.14;83.74
47220;BME280;32961;51.936;4.788;2023-03-25T00:42:15;100064.16;;;9.14;83.90
47220;BME280;32961;51.936;4.788;2023-03-25T00:44:43;100074.72;;;9.18;83.67
47220;BME280;32961;51.936;4.788;2023-03-25T00:47:11;100058.59;;;9.16;83.46
47220;BME280;32961;51.936;4.788;2023-03-25T00:49:43;100062.16;;;9.17;83.00
47220;BME280;32961;51.936;4.788;2023-03-25T00:52:11;100063.00;;;9.17;83.51
47220;BME280;32961;51.936;4.788;2023-03-25T00:54:39;100065.56;;;9.19;83.73
47220;BME280;32961;51.936;4.788;2023-03-25T00:57:07;100061.31;;;9.16;83.55
47220;BME280;32961;51.936;4.788;2023-03-25T00:59:36;100064.03;;;9.16;83.90
47220;BME280;32961;51.936;4.788;2023-03-25T01:02:04;100063.72;;;9.19;84.00
47220;BME280;32961;51.936;4.788;2023-03-25T01:04:32;100066.59;;;9.18;84.02
47220;BME280;32961;51.936;4.788;2023-03-25T01:07:00;100073.16;;;9.15;84.20
47220;BME280;32961;51.936;4.788;2023-03-25T01:09:29;100066.59;;;9.18;84.72
47220;BME280;32961;51.936;4.788;2023-03-25T01:11:57;100063.00;;;9.17;84.64
47220;BME280;32961;51.936;4.788;2023-03-25T01:14:25;100047.91;;;9.14;85.04
47220;BME280;32961;51.936;4.788;2023-03-25T01:16:57;100067.75;;;9.15;85.42
47220;BME280;32961;51.936;4.788;2023-03-25T01:19:25;100063.16;;;9.15;85.43
47220;BME280;32961;51.936;4.788;2023-03-25T01:21:53;100063.00;;;9.17;85.60
47220;BME280;32961;51.936;4.788;2023-03-25T01:24:20;100057.75;;;9.15;85.96
47220;BME280;32961;51.936;4.788;2023-03-25T01:26:48;100058.19;;;9.11;86.32
47220;BME280;32961;51.936;4.788;2023-03-25T01:29:18;100059.53;;;9.07;86.70
47220;BME280;32961;51.936;4.788;2023-03-25T01:31:46;100050.84;;;9.03;87.89
47220;BME280;32961;51.936;4.788;2023-03-25T01:34:16;100060.97;;;9.01;88.19
47220;BME280;32961;51.936;4.788;2023-03-25T01:36:44;100058.97;;;9.03;89.33
47220;BME280;32961;51.936;4.788;2023-03-25T01:39:14;100069.09;;;9.01;90.35
47220;BME280;32961;51.936;4.788;2023-03-25T01:41:45;100063.00;;;8.99;90.93
47220;BME280;32961;51.936;4.788;2023-03-25T01:47:22;100053.78;;;8.92;92.48
47220;BME280;32961;51.936;4.788;2023-03-25T01:49:53;100056.78;;;8.89;93.11
47220;BME280;32961;51.936;4.788;2023-03-25T01:52:23;100045.56;;;8.83;94.14
47220;BME280;32961;51.936;4.788;2023-03-25T01:54:56;100045.72;;;8.82;94.57
47220;BME280;32961;51.936;4.788;2023-03-25T01:57:25;100048.88;;;8.77;94.96
47220;BME280;32961;51.936;4.788;2023-03-25T01:59:54;100048.88;;;8.77;95.32
47220;BME280;32961;51.936;4.788;2023-03-25T02:02:22;100051.75;;;8.76;95.31
47220;BME280;32961;51.936;4.788;2023-03-25T02:05:04;100043.78;;;8.74;95.77
47220;BME280;32961;51.936;4.788;2023-03-25T02:07:39;100043.47;;;8.77;95.40
47220;BME280;32961;51.936;4.788;2023-03-25T02:10:10;100034.63;;;8.75;95.24
47220;BME280;32961;51.936;4.788;2023-03-25T02:12:38;100044.47;;;8.76;95.50
47220;BME280;32961;51.936;4.788;2023-03-25T02:15:08;100038.38;;;8.74;95.62
47220;BME280;32961;51.936;4.788;2023-03-25T02:17:45;100036.50;;;8.75;95.27
47220;BME280;32961;51.936;4.788;2023-03-25T02:20:36;100040.22;;;8.74;95.41
47220;BME280;32961;51.936;4.788;2023-03-25T02:23:33;100034.78;;;8.74;95.54
47220;BME280;32961;51.936;4.788;2023-03-25T02:26:47;100034.94;;;8.72;95.84
47220;BME280;32961;51.936;4.788;2023-03-25T02:29:32;100034.25;;;8.70;96.07
47220;BME280;32961;51.936;4.788;2023-03-25T02:32:18;100033.53;;;8.68;96.26
47220;BME280;32961;51.936;4.788;2023-03-25T02:37:59;100029.22;;;8.75;96.14
47220;BME280;32961;51.936;4.788;2023-03-25T02:40:36;100023.56;;;8.69;96.26
47220;BME280;32961;51.936;4.788;2023-03-25T02:43:10;100021.16;;;8.65;96.66
47220;BME280;32961;51.936;4.788;2023-03-25T02:45:44;100021.03;;;8.67;96.49
47220;BME280;32961;51.936;4.788;2023-03-25T02:48:17;100015.28;;;8.70;96.61
47220;BME280;32961;51.936;4.788;2023-03-25T02:50:49;100021.41;;;8.72;96.61
47220;BME280;32961;51.936;4.788;2023-03-25T02:53:23;100016.28;;;8.69;96.71
47220;BME280;32961;51.936;4.788;2023-03-25T02:55:55;100011.03;;;8.67;96.73
47220;BME280;32961;51.936;4.788;2023-03-25T02:58:26;99994.56;;;8.61;97.29
47220;BME280;32961;51.936;4.788;2023-03-25T03:00:55;100011.47;;;8.63;97.51
47220;BME280;32961;51.936;4.788;2023-03-25T03:03:25;100014.06;;;8.64;97.43
47220;BME280;32961;51.936;4.788;2023-03-25T03:05:56;100006.31;;;8.70;96.66
47220;BME280;32961;51.936;4.788;2023-03-25T03:08:37;100007.16;;;8.70;96.90
47220;BME280;32961;51.936;4.788;2023-03-25T03:11:12;100002.06;;;8.67;97.33
47220;BME280;32961;51.936;4.788;2023-03-25T03:13:52;100007.78;;;8.64;96.83
47220;BME280;32961;51.936;4.788;2023-03-25T03:16:31;99995.09;;;8.64;96.86
47220;BME280;32961;51.936;4.788;2023-03-25T03:19:07;100002.81;;;8.59;96.77
47220;BME280;32961;51.936;4.788;2023-03-25T03:21:43;99991.53;;;8.64;96.94
47220;BME280;32961;51.936;4.788;2023-03-25T03:24:23;99985.28;;;8.63;97.36
47220;BME280;32961;51.936;4.788;2023-03-25T03:26:57;99984.41;;;8.63;97.46
47220;BME280;32961;51.936;4.788;2023-03-25T03:29:30;99981.56;;;8.64;97.71
47220;BME280;32961;51.936;4.788;2023-03-25T03:32:05;99988.97;;;8.62;97.44
47220;BME280;32961;51.936;4.788;2023-03-25T03:34:38;99989.13;;;8.61;97.68
47220;BME280;32961;51.936;4.788;2023-03-25T03:37:13;99977.75;;;8.57;97.88
47220;BME280;32961;51.936;4.788;2023-03-25T03:39:45;99980.47;;;8.57;98.20
47220;BME280;32961;51.936;4.788;2023-03-25T03:42:17;99978.59;;;8.58;98.68
47220;BME280;32961;51.936;4.788;2023-03-25T03:44:49;99983.31;;;8.56;98.86
47220;BME280;32961;51.936;4.788;2023-03-25T03:47:21;99988.59;;;8.57;99.50
47220;BME280;32961;51.936;4.788;2023-03-25T03:49:52;99978.59;;;8.58;99.42
47220;BME280;32961;51.936;4.788;2023-03-25T03:52:24;99985.00;;;8.57;100.00
47220;BME280;32961;51.936;4.788;2023-03-25T03:54:59;99988.03;;;8.54;100.00
47220;BME280;32961;51.936;4.788;2023-03-25T03:57:30;99979.22;;;8.51;100.00
47220;BME280;32961;51.936;4.788;2023-03-25T04:00:03;100002.88;;;8.49;100.00
47220;BME280;32961;51.936;4.788;2023-03-25T04:02:36;99994.06;;;8.47;100.00
47220;BME280;32961;51.936;4.788;2023-03-25T04:05:07;100008.03;;;8.43;100.00
47220;BME280;32961;51.936;4.788;2023-03-25T04:07:39;100014.59;;;8.40;100.00
47220;BME280;32961;51.936;4.788;2023-03-25T04:10:13;100009.19;;;8.40;100.00
47220;BME280;32961;51.936;4.788;2023-03-25T04:12:43;100004.75;;;8.39;100.00
47220;BME280;32961;51.936;4.788;2023-03-25T04:15:13;99998.47;;;8.39;100.00
47220;BME280;32961;51.936;4.788;2023-03-25T04:17:41;100004.31;;;8.44;100.00
47220;BME280;32961;51.936;4.788;2023-03-25T04:20:12;100002.06;;;8.39;100.00
47220;BME280;32961;51.936;4.788;2023-03-25T04:22:40;99992.22;;;8.38;100.00
47220;BME280;32961;51.936;4.788;2023-03-25T04:25:12;99993.53;;;8.34;100.00
47220;BME280;32961;51.936;4.788;2023-03-25T04:27:40;99997.25;;;8.33;100.00
47220;BME280;32961;51.936;4.788;2023-03-25T04:30:15;100007.19;;;8.32;100.00
47220;BME280;32961;51.936;4.788;2023-03-25T04:32:45;99996.91;;;8.36;100.00
47220;BME280;32961;51.936;4.788;2023-03-25T04:35:13;99998.69;;;8.27;100.00
47220;BME280;32961;51.936;4.788;2023-03-25T04:37:42;100005.53;;;8.31;100.00
47220;BME280;32961;51.936;4.788;2023-03-25T04:40:13;99998.63;;;8.37;100.00
47220;BME280;32961;51.936;4.788;2023-03-25T04:42:44;100007.34;;;8.31;100.00
47220;BME280;32961;51.936;4.788;2023-03-25T04:45:13;100000.78;;;8.33;100.00
47220;BME280;32961;51.936;4.788;2023-03-25T04:47:43;100001.34;;;8.37;100.00
47220;BME280;32961;51.936;4.788;2023-03-25T04:50:18;99996.91;;;8.36;100.00
47220;BME280;32961;51.936;4.788;2023-03-25T04:52:48;99998.94;;;8.34;100.00
47220;BME280;32961;51.936;4.788;2023-03-25T04:55:18;99989.69;;;8.37;100.00
47220;BME280;32961;51.936;4.788;2023-03-25T04:57:48;100016.03;;;8.34;100.00
47220;BME280;32961;51.936;4.788;2023-03-25T05:00:18;100006.34;;;8.32;100.00
47220;BME280;32961;51.936;4.788;2023-03-25T05:02:49;100013.75;;;8.30;100.00
47220;BME280;32961;51.936;4.788;2023-03-25T05:05:19;100000.41;;;8.28;100.00
47220;BME280;32961;51.936;4.788;2023-03-25T05:07:48;100009.34;;;8.29;100.00
47220;BME280;32961;51.936;4.788;2023-03-25T05:10:20;100014.75;;;8.29;99.67
47220;BME280;32961;51.936;4.788;2023-03-25T05:12:48;100017.47;;;8.29;99.63
47220;BME280;32961;51.936;4.788;2023-03-25T05:15:16;100026.03;;;8.34;99.15
47220;BME280;32961;51.936;4.788;2023-03-25T05:17:44;100027.56;;;8.37;99.05
47220;BME280;32961;51.936;4.788;2023-03-25T05:20:12;100005.38;;;8.33;98.71
47220;BME280;32961;51.936;4.788;2023-03-25T05:22:41;100020.06;;;8.30;97.80
47220;BME280;32961;51.936;4.788;2023-03-25T05:25:11;100019.50;;;8.27;97.07
47220;BME280;32961;51.936;4.788;2023-03-25T05:27:40;100018.50;;;8.28;97.28
47220;BME280;32961;51.936;4.788;2023-03-25T05:30:09;100026.47;;;8.29;96.56
47220;BME280;32961;51.936;4.788;2023-03-25T05:32:36;100023.75;;;8.29;96.55
47220;BME280;32961;51.936;4.788;2023-03-25T05:35:07;100025.91;;;8.26;96.94
47220;BME280;32961;51.936;4.788;2023-03-25T05:37:35;100027.31;;;8.30;96.52
47220;BME280;32961;51.936;4.788;2023-03-25T05:40:05;100035.28;;;8.31;96.75
47220;BME280;32961;51.936;4.788;2023-03-25T05:42:42;100043.25;;;8.33;96.79
47220;BME280;32961;51.936;4.788;2023-03-25T05:45:14;100034.97;;;8.34;97.26
47220;BME280;32961;51.936;4.788;2023-03-25T05:47:42;100043.66;;;8.38;97.14
47220;BME280;32961;51.936;4.788;2023-03-25T05:50:10;100036.84;;;8.34;98.45
47220;BME280;32961;51.936;4.788;2023-03-25T05:52:40;100047.25;;;8.29;98.76
47220;BME280;32961;51.936;4.788;2023-03-25T05:55:10;100052.81;;;8.27;99.03
47220;BME280;32961;51.936;4.788;2023-03-25T05:57:38;100046.41;;;8.28;98.70
47220;BME280;32961;51.936;4.788;2023-03-25T06:00:09;100053.25;;;8.23;98.98
47220;BME280;32961;51.936;4.788;2023-03-25T06:02:38;100057.53;;;8.25;99.02
47220;BME280;32961;51.936;4.788;2023-03-25T06:05:09;100057.06;;;8.30;98.59
47220;BME280;32961;51.936;4.788;2023-03-25T06:07:39;100059.94;;;8.28;98.34
47220;BME280;32961;51.936;4.788;2023-03-25T06:10:09;100056.69;;;8.25;97.80
47220;BME280;32961;51.936;4.788;2023-03-25T06:12:37;100053.13;;;8.24;98.13
47220;BME280;32961;51.936;4.788;2023-03-25T06:15:08;100050.66;;;8.31;98.19
47220;BME280;32961;51.936;4.788;2023-03-25T06:17:36;100065.75;;;8.33;98.63
47220;BME280;32961;51.936;4.788;2023-03-25T06:20:07;100071.75;;;8.27;99.18
47220;BME280;32961;51.936;4.788;2023-03-25T06:22:38;100059.38;;;8.25;99.78
47220;BME280;32961;51.936;4.788;2023-03-25T06:25:06;100064.94;;;8.23;99.74
47220;BME280;32961;51.936;4.788;2023-03-25T06:27:35;100073.63;;;8.27;100.00
47220;BME280;32961;51.936;4.788;2023-03-25T06:30:09;100071.19;;;8.24;100.00
47220;BME280;32961;51.936;4.788;2023-03-25T06:32:38;100074.22;;;8.21;100.00
47220;BME280;32961;51.936;4.788;2023-03-25T06:35:08;100072.19;;;8.23;100.00
47220;BME280;32961;51.936;4.788;2023-03-25T06:37:36;100083.03;;;8.23;100.00
47220;BME280;32961;51.936;4.788;2023-03-25T06:40:05;100079.47;;;8.22;100.00
47220;BME280;32961;51.936;4.788;2023-03-25T06:42:33;100081.34;;;8.22;100.00
47220;BME280;32961;51.936;4.788;2023-03-25T06:45:01;100077.78;;;8.21;100.00
47220;BME280;32961;51.936;4.788;2023-03-25T06:47:32;100081.03;;;8.25;100.00
47220;BME280;32961;51.936;4.788;2023-03-25T06:50:00;100094.16;;;8.19;100.00
47220;BME280;32961;51.936;4.788;2023-03-25T06:52:27;100097.28;;;8.25;100.00
47220;BME280;32961;51.936;4.788;2023-03-25T06:54:55;100081.03;;;8.25;100.00
47220;BME280;32961;51.936;4.788;2023-03-25T06:57:23;100095.28;;;8.27;100.00
47220;BME280;32961;51.936;4.788;2023-03-25T06:59:51;100092.41;;;8.28;100.00
47220;BME280;32961;51.936;4.788;2023-03-25T07:02:19;100090.03;;;8.25;100.00
47220;BME280;32961;51.936;4.788;2023-03-25T07:04:48;100097.28;;;8.25;100.00
47220;BME280;32961;51.936;4.788;2023-03-25T07:07:17;100087.84;;;8.29;100.00
47220;BME280;32961;51.936;4.788;2023-03-25T07:09:49;100093.81;;;8.32;100.00
47220;BME280;32961;51.936;4.788;2023-03-25T07:12:17;100095.53;;;8.33;100.00
47220;BME280;32961;51.936;4.788;2023-03-25T07:14:49;100088.97;;;8.36;100.00
47220;BME280;32961;51.936;4.788;2023-03-25T07:17:17;100086.69;;;8.41;100.00
47220;BME280;32961;51.936;4.788;2023-03-25T07:19:45;100101.63;;;8.45;100.00
47220;BME280;32961;51.936;4.788;2023-03-25T07:22:14;100096.94;;;8.47;100.00
47220;BME280;32961;51.936;4.788;2023-03-25T07:24:43;100084.97;;;8.50;100.00
47220;BME280;32961;51.936;4.788;2023-03-25T07:27:11;100103.03;;;8.49;100.00
47220;BME280;32961;51.936;4.788;2023-03-25T07:29:39;100101.63;;;8.45;100.00
47220;BME280;32961;51.936;4.788;2023-03-25T07:32:07;100099.19;;;8.52;99.75
47220;BME280;32961;51.936;4.788;2023-03-25T07:34:35;100106.31;;;8.53;99.52
47220;BME280;32961;51.936;4.788;2023-03-25T07:37:03;100110.16;;;8.50;98.56
47220;BME280;32961;51.936;4.788;2023-03-25T07:39:32;100105.47;;;8.53;98.13
47220;BME280;32961;51.936;4.788;2023-03-25T07:42:00;100094.31;;;8.56;97.87
47220;BME280;32961;51.936;4.788;2023-03-25T07:44:28;100106.03;;;8.56;97.04
47220;BME280;32961;51.936;4.788;2023-03-25T07:46:56;100097.47;;;8.61;96.62
47220;BME280;32961;51.936;4.788;2023-03-25T07:49:23;100096.44;;;8.62;96.42
47220;BME280;32961;51.936;4.788;2023-03-25T07:51:51;100109.38;;;8.68;95.41
47220;BME280;32961;51.936;4.788;2023-03-25T07:54:19;100096.53;;;8.70;95.77
47220;BME280;32961;51.936;4.788;2023-03-25T07:56:49;100101.13;;;8.70;95.68
47220;BME280;32961;51.936;4.788;2023-03-25T07:59:18;100101.94;;;8.70;95.42
47220;BME280;32961;51.936;4.788;2023-03-25T08:01:45;100111.63;;;8.73;95.30
47220;BME280;32961;51.936;4.788;2023-03-25T08:04:13;100101.13;;;8.70;95.08
47220;BME280;32961;51.936;4.788;2023-03-25T08:06:41;100110.19;;;8.78;95.70
47220;BME280;32961;51.936;4.788;2023-03-25T08:09:09;100116.00;;;8.83;95.62
47220;BME280;32961;51.936;4.788;2023-03-25T08:11:37;100117.00;;;8.82;95.64
47220;BME280;32961;51.936;4.788;2023-03-25T08:14:06;100109.97;;;8.90;96.57
47220;BME280;32961;51.936;4.788;2023-03-25T08:16:34;100121.81;;;8.89;96.64
47220;BME280;32961;51.936;4.788;2023-03-25T08:19:02;100120.81;;;8.90;96.46
47220;BME280;32961;51.936;4.788;2023-03-25T08:21:29;100131.41;;;8.83;96.97
47220;BME280;32961;51.936;4.788;2023-03-25T08:23:57;100128.22;;;8.88;97.27
47220;BME280;32961;51.936;4.788;2023-03-25T08:26:28;100130.53;;;8.82;98.84
47220;BME280;32961;51.936;4.788;2023-03-25T08:28:56;100132.41;;;8.82;98.35
47220;BME280;32961;51.936;4.788;2023-03-25T08:31:28;100138.38;;;8.86;98.09
47220;BME280;32961;51.936;4.788;2023-03-25T08:33:57;100134.75;;;8.95;97.11
47220;BME280;32961;51.936;4.788;2023-03-25T08:36:25;100141.28;;;9.02;97.20
47220;BME280;32961;51.936;4.788;2023-03-25T08:38:53;100131.69;;;9.08;96.61
47220;BME280;32961;51.936;4.788;2023-03-25T08:41:21;100140.53;;;9.10;96.54
47220;BME280;32961;51.936;4.788;2023-03-25T08:43:49;100139.22;;;9.14;95.46
47220;BME280;32961;51.936;4.788;2023-03-25T08:46:17;100147.03;;;9.17;95.45
47220;BME280;32961;51.936;4.788;2023-03-25T08:48:46;100136.72;;;9.21;95.52
47220;BME280;32961;51.936;4.788;2023-03-25T08:51:15;100127.31;;;9.25;95.53
47220;BME280;32961;51.936;4.788;2023-03-25T08:53:43;100125.81;;;9.30;94.07
47220;BME280;32961;51.936;4.788;2023-03-25T08:56:11;100139.06;;;9.34;94.36
47220;BME280;32961;51.936;4.788;2023-03-25T08:58:39;100124.19;;;9.38;94.75
47220;BME280;32961;51.936;4.788;2023-03-25T09:01:08;100131.50;;;9.37;94.54
47220;BME280;32961;51.936;4.788;2023-03-25T09:03:37;100136.28;;;9.43;94.89
47220;BME280;32961;51.936;4.788;2023-03-25T09:06:08;100131.72;;;9.44;95.21
47220;BME280;32961;51.936;4.788;2023-03-25T09:08:36;100146.81;;;9.46;95.34
47220;BME280;32961;51.936;4.788;2023-03-25T09:11:04;100141.56;;;9.63;95.34
47220;BME280;32961;51.936;4.788;2023-03-25T09:13:32;100131.25;;;9.67;93.34
47220;BME280;32961;51.936;4.788;2023-03-25T09:16:00;100141.03;;;9.77;91.88
47220;BME280;32961;51.936;4.788;2023-03-25T09:18:27;100136.75;;;9.75;91.13
47220;BME280;32961;51.936;4.788;2023-03-25T09:20:58;100124.88;;;9.76;89.76
47220;BME280;32961;51.936;4.788;2023-03-25T09:23:27;100130.53;;;9.83;90.05
47220;BME280;32961;51.936;4.788;2023-03-25T09:25:59;100140.75;;;9.89;89.40
47220;BME280;32961;51.936;4.788;2023-03-25T09:28:27;100148.00;;;9.80;88.47
47220;BME280;32961;51.936;4.788;2023-03-25T09:30:56;100133.72;;;9.78;89.25
47220;BME280;32961;51.936;4.788;2023-03-25T09:33:23;100146.81;;;9.83;88.67
47220;BME280;32961;51.936;4.788;2023-03-25T09:35:53;100146.81;;;9.83;88.34
47220;BME280;32961;51.936;4.788;2023-03-25T09:38:21;100151.91;;;9.86;87.58
47220;BME280;32961;51.936;4.788;2023-03-25T09:40:50;100154.41;;;9.97;87.56
47220;BME280;32961;51.936;4.788;2023-03-25T09:43:33;100143.94;;;10.02;86.41
47220;BME280;32961;51.936;4.788;2023-03-25T09:46:04;100158.75;;;10.08;85.78
47220;BME280;32961;51.936;4.788;2023-03-25T09:48:35;100140.56;;;10.08;85.52
47220;BME280;32961;51.936;4.788;2023-03-25T09:51:05;100154.84;;;10.10;84.43
47220;BME280;32961;51.936;4.788;2023-03-25T09:53:37;100154.16;;;10.08;84.25
47220;BME280;32961;51.936;4.788;2023-03-25T09:56:11;100159.09;;;10.13;83.41
47220;BME280;32961;51.936;4.788;2023-03-25T09:58:42;100163.91;;;10.19;83.79
47220;BME280;32961;51.936;4.788;2023-03-25T10:01:31;100168.53;;;10.27;82.98
47220;BME280;32961;51.936;4.788;2023-03-25T10:04:12;100155.00;;;10.35;82.27
47220;BME280;32961;51.936;4.788;2023-03-25T10:06:51;100169.03;;;10.49;82.50
47220;BME280;32961;51.936;4.788;2023-03-25T10:09:37;100161.75;;;10.49;81.85
47220;BME280;32961;51.936;4.788;2023-03-25T10:12:15;100175.53;;;10.56;80.25
47220;BME280;32961;51.936;4.788;2023-03-25T10:14:57;100176.72;;;10.53;79.62
47220;BME280;32961;51.936;4.788;2023-03-25T10:17:34;100174.69;;;10.55;80.51
47220;BME280;32961;51.936;4.788;2023-03-25T10:20:11;100166.25;;;10.67;80.66
47220;BME280;32961;51.936;4.788;2023-03-25T10:22:52;100177.09;;;10.67;79.25
47220;BME280;32961;51.936;4.788;2023-03-25T10:25:24;100169.00;;;10.75;78.76
47220;BME280;32961;51.936;4.788;2023-03-25T10:27:55;100187.72;;;10.78;77.76
47220;BME280;32961;51.936;4.788;2023-03-25T10:30:26;100182.41;;;10.68;78.37
47220;BME280;32961;51.936;4.788;2023-03-25T10:32:57;100190.91;;;10.73;79.74
47220;BME280;32961;51.936;4.788;2023-03-25T10:35:27;100188.72;;;10.77;79.19
47220;BME280;32961;51.936;4.788;2023-03-25T10:37:58;100213.13;;;10.69;77.27
47220;BME280;32961;51.936;4.788;2023-03-25T10:40:34;100202.78;;;10.72;78.23
47220;BME280;32961;51.936;4.788;2023-03-25T10:43:13;100194.16;;;10.77;77.70
47220;BME280;32961;51.936;4.788;2023-03-25T10:45:44;100205.22;;;10.84;77.76
47220;BME280;32961;51.936;4.788;2023-03-25T10:48:21;100226.97;;;10.84;78.03
47220;BME280;32961;51.936;4.788;2023-03-25T10:50:51;100205.75;;;10.87;77.33
47220;BME280;32961;51.936;4.788;2023-03-25T10:53:22;100208.00;;;10.92;76.99
47220;BME280;32961;51.936;4.788;2023-03-25T10:55:53;100216.25;;;11.08;78.74
47220;BME280;32961;51.936;4.788;2023-03-25T10:58:24;100232.25;;;11.20;79.06
47220;BME280;32961;51.936;4.788;2023-03-25T11:00:53;100228.03;;;11.34;79.50
47220;BME280;32961;51.936;4.788;2023-03-25T11:03:24;100237.78;;;11.45;80.00
47220;BME280;32961;51.936;4.788;2023-03-25T11:05:53;100228.94;;;11.51;79.12
47220;BME280;32961;51.936;4.788;2023-03-25T11:08:21;100215.03;;;11.62;78.07
47220;BME280;32961;51.936;4.788;2023-03-25T11:10:51;100223.91;;;11.72;77.83
47220;BME280;32961;51.936;4.788;2023-03-25T11:13:26;100239.91;;;11.84;75.89
47220;BME280;32961;51.936;4.788;2023-03-25T11:15:57;100235.03;;;12.04;75.77
47220;BME280;32961;51.936;4.788;2023-03-25T11:18:28;100237.09;;;12.02;74.45
47220;BME280;32961;51.936;4.788;2023-03-25T11:21:01;100241.78;;;11.92;75.57
47220;BME280;32961;51.936;4.788;2023-03-25T11:23:31;100237.69;;;11.79;73.73
47220;BME280;32961;51.936;4.788;2023-03-25T11:26:02;100230.69;;;11.60;72.70
47220;BME280;32961;51.936;4.788;2023-03-25T11:28:36;100235.97;;;11.62;71.73
47220;BME280;32961;51.936;4.788;2023-03-25T11:31:08;100234.78;;;11.72;73.57
47220;BME280;32961;51.936;4.788;2023-03-25T11:33:38;100225.94;;;11.70;73.27
47220;BME280;32961;51.936;4.788;2023-03-25T11:36:11;100234.09;;;11.70;72.57
47220;BME280;32961;51.936;4.788;2023-03-25T11:38:39;100231.25;;;11.88;71.83
47220;BME280;32961;51.936;4.788;2023-03-25T11:41:07;100244.41;;;12.18;72.75
47220;BME280;32961;51.936;4.788;2023-03-25T11:43:37;100256.31;;;12.33;71.22
47220;BME280;32961;51.936;4.788;2023-03-25T11:46:07;100237.94;;;12.44;69.22
47220;BME280;32961;51.936;4.788;2023-03-25T11:48:37;100226.38;;;12.17;68.63
47220;BME280;32961;51.936;4.788;2023-03-25T11:51:10;100248.63;;;12.04;68.98
47220;BME280;32961;51.936;4.788;2023-03-25T11:53:43;100244.19;;;11.95;70.31
47220;BME280;32961;51.936;4.788;2023-03-25T11:56:15;100233.50;;;12.10;70.75
47220;BME280;32961;51.936;4.788;2023-03-25T11:58:48;100262.28;;;12.20;70.29
47220;BME280;32961;51.936;4.788;2023-03-25T12:01:23;100248.84;;;12.44;69.78
47220;BME280;32961;51.936;4.788;2023-03-25T12:04:06;100232.94;;;12.72;70.26
47220;BME280;32961;51.936;4.788;2023-03-25T12:06:35;100237.88;;;12.77;67.72
47220;BME280;32961;51.936;4.788;2023-03-25T12:09:08;100214.44;;;12.51;68.72
47220;BME280;32961;51.936;4.788;2023-03-25T12:11:40;100252.22;;;12.29;70.31
47220;BME280;32961;51.936;4.788;2023-03-25T12:14:22;100226.53;;;12.40;70.74
47220;BME280;32961;51.936;4.788;2023-03-25T12:16:56;100242.88;;;12.07;68.19
47220;BME280;32961;51.936;4.788;2023-03-25T12:19:33;100242.81;;;11.82;69.57
47220;BME280;32961;51.936;4.788;2023-03-25T12:22:19;100242.63;;;11.84;70.72
47220;BME280;32961;51.936;4.788;2023-03-25T12:25:03;100244.84;;;11.80;70.00
47220;BME280;32961;51.936;4.788;2023-03-25T12:27:44;100247.38;;;11.82;70.72
47220;BME280;32961;51.936;4.788;2023-03-25T12:30:24;100237.72;;;11.96;70.79
47220;BME280;32961;51.936;4.788;2023-03-25T12:33:04;100255.81;;;12.13;70.69
47220;BME280;32961;51.936;4.788;2023-03-25T12:35:41;100249.50;;;12.29;69.65
47220;BME280;32961;51.936;4.788;2023-03-25T12:38:25;100248.16;;;12.25;67.44
47220;BME280;32961;51.936;4.788;2023-03-25T12:41:16;100250.84;;;12.33;69.19
47220;BME280;32961;51.936;4.788;2023-03-25T12:43:57;100246.97;;;12.36;70.14
47220;BME280;32961;51.936;4.788;2023-03-25T12:46:44;100247.47;;;12.31;68.93
47220;BME280;32961;51.936;4.788;2023-03-25T12:49:29;100242.19;;;12.22;69.36
47220;BME280;32961;51.936;4.788;2023-03-25T12:52:05;100253.94;;;12.30;70.01
47220;BME280;32961;51.936;4.788;2023-03-25T12:54:45;100260.75;;;12.26;68.45
47220;BME280;32961;51.936;4.788;2023-03-25T12:57:26;100259.22;;;12.15;69.06
47220;BME280;32961;51.936;4.788;2023-03-25T13:00:12;100277.44;;;12.07;70.14
47220;BME280;32961;51.936;4.788;2023-03-25T13:03:11;100265.44;;;11.91;69.83
47220;BME280;32961;51.936;4.788;2023-03-25T13:05:47;100282.47;;;11.93;70.63
47220;BME280;32961;51.936;4.788;2023-03-25T13:08:18;100279.38;;;11.80;69.13
47220;BME280;32961;51.936;4.788;2023-03-25T13:10:50;100279.69;;;11.77;70.58
47220;BME280;32961;51.936;4.788;2023-03-25T13:13:23;100279.53;;;11.70;70.20
47220;BME280;32961;51.936;4.788;2023-03-25T13:15:59;100299.56;;;11.61;70.75
47220;BME280;32961;51.936;4.788;2023-03-25T13:18:34;100286.38;;;11.39;73.19
47220;BME280;32961;51.936;4.788;2023-03-25T13:21:06;100293.09;;;11.19;76.43
47220;BME280;32961;51.936;4.788;2023-03-25T13:23:41;100278.84;;;11.25;77.68
47220;BME280;32961;51.936;4.788;2023-03-25T13:26:11;100274.94;;;11.28;77.39
47220;BME280;32961;51.936;4.788;2023-03-25T13:28:44;100285.00;;;11.35;77.18